createdAt,value
2018-04-11T00:00:40.557Z,14.10
2018-04-11T00:03:11.552Z,14.10
2018-04-11T00:05:49.492Z,14.09
2018-04-11T00:08:20.526Z,14.02
2018-04-11T00:10:51.530Z,14.00
2018-04-11T00:13:22.529Z,14.06
2018-04-11T00:15:53.488Z,14.17
2018-04-11T00:18:24.451Z,14.23
2018-04-11T00:20:55.435Z,14.28
2018-04-11T00:23:26.465Z,14.36
2018-04-11T00:25:57.437Z,14.41
2018-04-11T00:28:28.443Z,14.38
2018-04-11T00:30:59.411Z,14.31
2018-04-11T00:33:30.424Z,14.29
2018-04-11T00:36:01.385Z,14.24
2018-04-11T00:38:32.363Z,14.26
2018-04-11T00:41:03.334Z,14.31
2018-04-11T00:43:34.342Z,14.32
2018-04-11T00:46:05.346Z,14.26
2018-04-11T00:48:36.357Z,14.16
2018-04-11T00:51:07.360Z,14.11
2018-04-11T00:53:38.386Z,14.10
2018-04-11T00:56:09.406Z,14.14
2018-04-11T00:58:40.381Z,14.19
2018-04-11T01:01:11.378Z,14.21
2018-04-11T01:03:42.396Z,14.23
2018-04-11T01:06:13.496Z,14.26
2018-04-11T01:08:44.504Z,14.30
2018-04-11T01:11:15.517Z,14.30
2018-04-11T01:13:46.526Z,14.29
2018-04-11T01:16:17.562Z,14.33
2018-04-11T01:18:48.558Z,14.34
2018-04-11T01:21:19.550Z,14.30
2018-04-11T01:23:50.558Z,14.27
2018-04-11T01:26:21.571Z,14.19
2018-04-11T01:28:52.575Z,14.11
2018-04-11T01:31:23.557Z,14.02
2018-04-11T01:33:54.544Z,13.96
2018-04-11T01:36:25.535Z,13.89
2018-04-11T01:38:56.518Z,13.91
2018-04-11T01:41:27.532Z,13.92
2018-04-11T01:43:58.507Z,13.90
2018-04-11T01:46:29.509Z,13.89
2018-04-11T01:49:00.482Z,13.91
2018-04-11T01:51:31.516Z,14.00
2018-04-11T01:54:02.487Z,14.07
2018-04-11T01:56:33.504Z,14.11
2018-04-11T01:59:04.498Z,14.15
2018-04-11T02:01:35.522Z,14.13
2018-04-11T02:04:06.527Z,14.14
2018-04-11T02:06:37.528Z,14.16
2018-04-11T02:09:08.562Z,14.18
2018-04-11T02:11:39.577Z,14.15
2018-04-11T02:14:10.618Z,14.09
2018-04-11T02:16:41.621Z,14.01
2018-04-11T02:19:12.636Z,13.99
2018-04-11T02:21:43.638Z,13.91
2018-04-11T02:24:14.648Z,13.94
2018-04-11T02:26:45.650Z,13.99
2018-04-11T02:29:16.687Z,13.98
2018-04-11T02:31:47.699Z,13.96
2018-04-11T02:34:18.712Z,13.98
2018-04-11T02:36:49.715Z,13.96
2018-04-11T02:39:20.718Z,13.98
2018-04-11T02:41:51.663Z,13.97
2018-04-11T02:44:22.664Z,13.98
2018-04-11T02:46:53.712Z,13.95
2018-04-11T02:49:24.683Z,13.91
2018-04-11T02:51:55.693Z,13.90
2018-04-11T02:54:26.691Z,13.87
2018-04-11T02:56:57.693Z,13.86
2018-04-11T02:59:28.708Z,13.86
2018-04-11T03:01:59.744Z,13.88
2018-04-11T03:04:30.721Z,13.85
2018-04-11T03:07:01.759Z,13.79
2018-04-11T03:09:32.764Z,13.76
2018-04-11T03:12:03.804Z,13.69
2018-04-11T03:14:34.883Z,13.64
2018-04-11T03:17:05.928Z,13.66
2018-04-11T03:19:36.981Z,13.70
2018-04-11T03:22:07.972Z,13.74
2018-04-11T03:24:38.980Z,13.72
2018-04-11T03:27:09.986Z,13.73
2018-04-11T03:29:41.018Z,13.78
2018-04-11T03:32:12.063Z,13.80
2018-04-11T03:34:43.083Z,13.83
2018-04-11T03:37:14.114Z,13.84
2018-04-11T03:39:45.160Z,13.84
2018-04-11T03:42:16.168Z,13.80
2018-04-11T03:44:47.144Z,13.78
2018-04-11T03:47:18.139Z,13.79
2018-04-11T03:49:49.112Z,13.76
2018-04-11T03:52:20.088Z,13.75
2018-04-11T03:54:51.090Z,13.72
2018-04-11T03:57:22.072Z,13.64
2018-04-11T03:59:53.102Z,13.54
2018-04-11T04:02:24.107Z,13.48
2018-04-11T04:04:55.123Z,13.42
2018-04-11T04:07:26.099Z,13.30
2018-04-11T04:09:57.174Z,13.27
2018-04-11T04:12:28.191Z,13.29
2018-04-11T04:15:11.345Z,13.35
2018-04-11T04:17:54.521Z,13.40
2018-04-11T04:20:35.972Z,13.48
2018-04-11T04:23:06.997Z,13.58
2018-04-11T04:25:38.032Z,13.67
2018-04-11T04:28:09.076Z,13.71
2018-04-11T04:30:40.062Z,13.72
2018-04-11T04:33:11.172Z,13.70
2018-04-11T04:35:42.152Z,13.69
2018-04-11T04:38:13.156Z,13.66
2018-04-11T04:40:44.133Z,13.67
2018-04-11T04:43:15.155Z,13.69
2018-04-11T04:45:46.188Z,13.68
2018-04-11T04:48:17.232Z,13.66
2018-04-11T04:50:48.240Z,13.61
2018-04-11T04:53:19.242Z,13.54
2018-04-11T04:55:50.257Z,13.46
2018-04-11T04:58:21.251Z,13.41
2018-04-11T05:00:52.195Z,13.36
2018-04-11T05:03:23.155Z,13.30
2018-04-11T05:05:54.186Z,13.26
2018-04-11T05:08:25.197Z,13.11
2018-04-11T05:10:56.219Z,13.05
2018-04-11T05:13:27.202Z,13.01
2018-04-11T05:15:58.223Z,12.91
2018-04-11T05:18:29.214Z,12.89
2018-04-11T05:21:00.268Z,12.85
2018-04-11T05:23:31.314Z,12.84
2018-04-11T05:26:02.351Z,12.81
2018-04-11T05:28:33.391Z,12.82
2018-04-11T05:31:04.389Z,12.81
2018-04-11T05:33:35.379Z,12.78
2018-04-11T05:36:06.403Z,12.67
2018-04-11T05:38:37.406Z,12.62
2018-04-11T05:41:08.422Z,12.55
2018-04-11T05:43:39.466Z,12.54
2018-04-11T05:46:10.472Z,12.69
2018-04-11T05:48:41.529Z,12.74
2018-04-11T05:51:12.591Z,12.78
2018-04-11T05:53:43.555Z,12.97
2018-04-11T05:56:14.603Z,13.22
2018-04-11T05:58:45.653Z,13.45
2018-04-11T06:01:16.619Z,13.76
2018-04-11T06:03:47.685Z,14.25
2018-04-11T06:06:18.676Z,14.62
2018-04-11T06:08:49.700Z,15.05
2018-04-11T06:11:20.704Z,15.61
2018-04-11T06:13:51.730Z,16.19
2018-04-11T06:16:22.732Z,16.82
2018-04-11T06:18:53.709Z,17.15
2018-04-11T06:21:24.726Z,17.40
2018-04-11T06:23:55.675Z,17.34
2018-04-11T06:26:26.646Z,17.44
2018-04-11T06:28:57.621Z,17.79
2018-04-11T06:31:28.627Z,18.02
2018-04-11T06:33:59.590Z,18.36
2018-04-11T06:36:30.603Z,18.41
2018-04-11T06:39:01.622Z,18.20
2018-04-11T06:41:32.563Z,18.13
2018-04-11T06:44:03.545Z,18.19
2018-04-11T06:46:34.565Z,18.41
2018-04-11T06:49:05.603Z,18.78
2018-04-11T06:51:36.644Z,19.17
2018-04-11T06:54:07.687Z,19.68
2018-04-11T06:56:38.726Z,24.26
2018-04-11T06:59:09.728Z,29.33
2018-04-11T07:01:40.738Z,30.98
2018-04-11T07:04:11.697Z,32.90
2018-04-11T07:06:42.709Z,31.59
2018-04-11T07:09:13.688Z,29.93
2018-04-11T07:11:44.699Z,28.01
2018-04-11T07:14:15.672Z,26.26
2018-04-11T07:16:46.728Z,26.32
2018-04-11T07:19:17.715Z,27.20
2018-04-11T07:21:48.737Z,29.68
2018-04-11T07:24:19.735Z,33.83
2018-04-11T07:26:50.700Z,37.35
2018-04-11T07:29:21.706Z,36.60
2018-04-11T07:31:52.693Z,33.72
2018-04-11T07:34:23.720Z,31.51
2018-04-11T07:36:54.692Z,31.60
2018-04-11T07:39:25.729Z,30.18
2018-04-11T07:41:56.712Z,31.22
2018-04-11T07:44:27.689Z,31.45
2018-04-11T07:46:58.699Z,34.40
2018-04-11T07:49:29.726Z,38.15
2018-04-11T07:52:00.701Z,40.22
2018-04-11T07:54:31.741Z,42.51
2018-04-11T07:57:02.696Z,44.09
2018-04-11T07:59:33.778Z,45.26
2018-04-11T08:02:04.882Z,46.39
2018-04-11T08:04:35.932Z,47.08
2018-04-11T08:07:06.983Z,47.12
2018-04-11T08:09:37.998Z,47.69
2018-04-11T08:12:08.993Z,48.43
2018-04-11T08:14:40.072Z,47.98
2018-04-11T08:17:11.111Z,46.92
2018-04-11T08:19:42.218Z,46.65
2018-04-11T08:22:13.262Z,46.95
2018-04-11T08:24:44.314Z,47.68
2018-04-11T08:27:15.309Z,48.43
2018-04-11T08:29:46.340Z,47.24
2018-04-11T08:32:17.353Z,46.80
2018-04-11T08:34:48.357Z,48.05
2018-04-11T08:37:19.364Z,48.78
2018-04-11T08:39:50.348Z,49.13
2018-04-11T08:42:21.346Z,49.07
2018-04-11T08:44:52.321Z,50.02
2018-04-11T08:47:23.368Z,50.61
2018-04-11T08:49:54.335Z,49.83
2018-04-11T08:52:25.298Z,49.86
2018-04-11T08:54:56.314Z,49.50
2018-04-11T08:57:27.298Z,49.10
2018-04-11T08:59:58.317Z,48.85
2018-04-11T09:02:29.364Z,48.29
2018-04-11T09:05:00.339Z,48.49
2018-04-11T09:07:31.383Z,47.99
2018-04-11T09:10:02.389Z,47.30
2018-04-11T09:12:33.404Z,47.77
2018-04-11T09:15:04.427Z,48.26
2018-04-11T09:17:35.445Z,49.18
2018-04-11T09:20:06.443Z,49.79
2018-04-11T09:22:37.460Z,49.63
2018-04-11T09:25:08.432Z,49.62
2018-04-11T09:27:39.440Z,50.15
2018-04-11T09:30:10.422Z,50.66
2018-04-11T09:32:41.449Z,50.82
2018-04-11T09:35:12.460Z,50.65
2018-04-11T09:37:43.495Z,50.47
2018-04-11T09:40:14.536Z,49.88
2018-04-11T09:42:45.574Z,49.50
2018-04-11T09:45:16.615Z,49.77
2018-04-11T09:47:47.651Z,49.62
2018-04-11T09:50:18.666Z,49.46
2018-04-11T09:52:49.651Z,48.75
2018-04-11T09:55:20.682Z,48.98
2018-04-11T09:57:51.718Z,49.20
2018-04-11T10:00:22.807Z,49.21
2018-04-11T10:02:59.759Z,48.49
2018-04-11T10:05:38.182Z,48.29
2018-04-11T10:08:09.229Z,48.07
2018-04-11T10:10:40.248Z,47.74
2018-04-11T10:13:11.243Z,47.84
2018-04-11T10:15:42.264Z,47.88
2018-04-11T10:18:13.332Z,47.64
2018-04-11T10:20:44.358Z,47.26
2018-04-11T10:23:15.376Z,47.31
2018-04-11T10:25:46.407Z,47.27
2018-04-11T10:28:17.436Z,44.30
2018-04-11T10:30:48.423Z,42.90
2018-04-11T10:33:19.467Z,43.55
2018-04-11T10:35:50.470Z,44.30
2018-04-11T10:38:21.532Z,44.98
2018-04-11T10:40:52.535Z,45.44
2018-04-11T10:43:23.525Z,45.48
2018-04-11T10:45:54.535Z,45.79
2018-04-11T10:48:25.590Z,46.26
2018-04-11T10:50:56.590Z,43.20
2018-04-11T10:53:27.625Z,40.78
2018-04-11T10:55:58.610Z,40.14
2018-04-11T10:58:29.570Z,39.74
2018-04-11T11:01:00.593Z,39.79
2018-04-11T11:03:31.605Z,40.12
2018-04-11T11:06:02.652Z,39.37
2018-04-11T11:08:33.713Z,36.48
2018-04-11T11:11:04.755Z,33.73
2018-04-11T11:13:35.748Z,31.98
2018-04-11T11:16:06.752Z,31.16
2018-04-11T11:18:37.766Z,30.24
2018-04-11T11:21:08.729Z,29.03
2018-04-11T11:23:39.730Z,28.28
2018-04-11T11:26:10.757Z,28.29
2018-04-11T11:28:41.820Z,27.93
2018-04-11T11:31:12.794Z,27.71
2018-04-11T11:33:50.859Z,28.03
2018-04-11T11:36:21.905Z,27.99
2018-04-11T11:38:52.980Z,27.35
2018-04-11T11:41:24.078Z,26.68
2018-04-11T11:43:55.090Z,26.07
2018-04-11T11:46:26.101Z,25.90
2018-04-11T11:48:57.086Z,25.59
2018-04-11T11:51:28.075Z,25.53
2018-04-11T11:53:59.091Z,25.90
2018-04-11T11:56:30.087Z,26.05
2018-04-11T11:59:01.103Z,26.24
2018-04-11T12:01:32.089Z,26.24
2018-04-11T12:04:03.118Z,26.69
2018-04-11T12:06:34.080Z,27.03
2018-04-11T12:09:05.094Z,26.84
2018-04-11T12:11:36.098Z,26.79
2018-04-11T12:14:07.076Z,26.65
2018-04-11T12:16:38.094Z,26.62
2018-04-11T12:19:09.124Z,26.75
2018-04-11T12:21:40.118Z,26.87
2018-04-11T12:24:11.112Z,26.68
2018-04-11T12:26:42.097Z,26.72
2018-04-11T12:29:13.111Z,26.98
2018-04-11T12:31:44.084Z,26.44
2018-04-11T12:34:15.119Z,26.19
2018-04-11T12:36:46.158Z,26.62
2018-04-11T12:39:17.186Z,26.49
2018-04-11T12:41:48.190Z,26.09
2018-04-11T12:44:19.166Z,25.93
2018-04-11T12:46:50.171Z,26.23
2018-04-11T12:49:21.163Z,26.82
2018-04-11T12:51:52.185Z,27.19
2018-04-11T12:54:23.178Z,27.58
2018-04-11T12:56:54.219Z,27.54
2018-04-11T12:59:25.256Z,27.07
2018-04-11T13:01:56.263Z,26.81
2018-04-11T13:04:27.226Z,26.19
2018-04-11T13:06:58.240Z,26.33
2018-04-11T13:09:29.279Z,26.70
2018-04-11T13:12:00.286Z,27.22
2018-04-11T13:14:31.328Z,27.66
2018-04-11T13:17:02.298Z,27.54
2018-04-11T13:19:33.262Z,26.87
2018-04-11T13:22:04.286Z,26.14
2018-04-11T13:24:35.253Z,25.81
2018-04-11T13:27:06.254Z,26.35
2018-04-11T13:29:37.238Z,27.11
2018-04-11T13:32:08.253Z,27.31
2018-04-11T13:34:39.257Z,27.28
2018-04-11T13:37:10.342Z,27.26
2018-04-11T13:39:41.306Z,27.40
2018-04-11T13:42:12.278Z,27.17
2018-04-11T13:44:43.283Z,27.61
2018-04-11T13:47:14.279Z,27.94
2018-04-11T13:49:45.292Z,27.74
2018-04-11T13:52:16.261Z,27.69
2018-04-11T13:54:47.279Z,27.98
2018-04-11T13:57:18.278Z,28.13
2018-04-11T13:59:49.254Z,27.53
2018-04-11T14:02:20.265Z,26.93
2018-04-11T14:04:51.262Z,26.51
2018-04-11T14:07:22.273Z,26.85
2018-04-11T14:09:53.273Z,27.21
2018-04-11T14:12:24.293Z,27.57
2018-04-11T14:14:55.256Z,27.89
2018-04-11T14:17:26.324Z,27.94
2018-04-11T14:19:57.334Z,28.03
2018-04-11T14:22:28.303Z,28.26
2018-04-11T14:24:59.328Z,28.32
2018-04-11T14:27:30.321Z,28.28
2018-04-11T14:30:01.333Z,28.20
2018-04-11T14:32:32.339Z,28.29
2018-04-11T14:35:03.410Z,28.38
2018-04-11T14:37:34.413Z,28.27
2018-04-11T14:40:05.491Z,28.24
2018-04-11T14:42:36.668Z,28.09
2018-04-11T14:45:07.676Z,27.89
2018-04-11T14:47:38.683Z,27.28
2018-04-11T14:50:09.728Z,26.89
2018-04-11T14:52:40.722Z,26.24
2018-04-11T14:55:11.716Z,26.13
2018-04-11T14:57:42.742Z,26.26
2018-04-11T15:00:13.716Z,26.36
2018-04-11T15:02:44.738Z,26.29
2018-04-11T15:05:15.779Z,26.35
2018-04-11T15:07:46.763Z,26.48
2018-04-11T15:10:17.743Z,26.40
2018-04-11T15:12:48.745Z,26.52
2018-04-11T15:15:19.785Z,26.48
2018-04-11T15:17:50.877Z,26.74
2018-04-11T15:20:21.915Z,26.75
2018-04-11T15:22:52.878Z,26.61
2018-04-11T15:25:23.896Z,26.48
2018-04-11T15:27:54.844Z,25.71
2018-04-11T15:30:25.864Z,25.32
2018-04-11T15:32:56.842Z,25.03
2018-04-11T15:35:27.920Z,24.88
2018-04-11T15:37:58.905Z,24.30
2018-04-11T15:40:29.897Z,24.21
2018-04-11T15:43:00.935Z,24.39
2018-04-11T15:45:31.912Z,24.65
2018-04-11T15:48:02.889Z,24.98
2018-04-11T15:50:33.883Z,25.28
2018-04-11T15:53:04.877Z,25.50
2018-04-11T15:55:35.876Z,25.55
2018-04-11T15:58:06.845Z,25.38
2018-04-11T16:00:37.844Z,25.43
2018-04-11T16:03:08.862Z,24.93
2018-04-11T16:05:39.862Z,24.43
2018-04-11T16:08:10.898Z,24.11
2018-04-11T16:10:41.952Z,23.98
2018-04-11T16:13:13.022Z,24.02
2018-04-11T16:15:44.091Z,24.09
2018-04-11T16:18:15.062Z,23.90
2018-04-11T16:20:46.076Z,23.84
2018-04-11T16:23:17.107Z,23.75
2018-04-11T16:25:48.125Z,23.56
2018-04-11T16:28:19.150Z,23.39
2018-04-11T16:30:50.194Z,23.12
2018-04-11T16:33:21.214Z,23.02
2018-04-11T16:35:52.249Z,22.85
2018-04-11T16:38:23.245Z,22.79
2018-04-11T16:40:54.226Z,22.69
2018-04-11T16:43:25.265Z,22.57
2018-04-11T16:45:56.307Z,22.46
2018-04-11T16:48:27.972Z,22.29
2018-04-11T16:50:58.967Z,22.01
2018-04-11T16:53:29.947Z,21.99
2018-04-11T16:56:00.942Z,21.95
2018-04-11T16:58:31.950Z,22.00
2018-04-11T17:01:02.986Z,21.95
2018-04-11T17:03:34.049Z,21.88
2018-04-11T17:06:05.014Z,21.81
2018-04-11T17:08:36.020Z,21.70
2018-04-11T17:11:07.068Z,21.55
2018-04-11T17:13:38.100Z,21.38
2018-04-11T17:16:09.169Z,21.25
2018-04-11T17:18:40.184Z,21.06
2018-04-11T17:21:23.429Z,20.94
2018-04-11T17:24:06.935Z,20.77
2018-04-11T17:26:50.192Z,20.61
2018-04-11T17:29:33.673Z,20.53
2018-04-11T17:32:04.630Z,20.38
2018-04-11T17:34:35.642Z,20.27
2018-04-11T17:37:06.674Z,20.25
2018-04-11T17:39:37.646Z,20.17
2018-04-11T17:42:08.661Z,20.13
2018-04-11T17:44:39.710Z,20.04
2018-04-11T17:47:10.719Z,19.99
2018-04-11T17:49:41.733Z,19.86
2018-04-11T17:52:12.725Z,19.79
2018-04-11T17:54:43.740Z,19.75
2018-04-11T17:57:14.721Z,19.66
2018-04-11T17:59:45.762Z,19.64
2018-04-11T18:02:16.723Z,19.56
2018-04-11T18:04:47.746Z,19.50
2018-04-11T18:07:18.755Z,19.42
2018-04-11T18:09:49.728Z,19.36
2018-04-11T18:12:20.771Z,19.24
2018-04-11T18:14:51.761Z,19.15
2018-04-11T18:17:22.778Z,19.09
2018-04-11T18:19:53.816Z,19.00
2018-04-11T18:22:24.830Z,18.95
2018-04-11T18:24:55.819Z,18.91
2018-04-11T18:27:26.829Z,18.87
2018-04-11T18:29:57.856Z,18.87
2018-04-11T18:32:28.863Z,18.82
2018-04-11T18:34:59.873Z,18.81
2018-04-11T18:37:30.841Z,18.75
2018-04-11T18:40:01.818Z,18.71
2018-04-11T18:42:32.840Z,18.67
2018-04-11T18:45:03.876Z,18.61
2018-04-11T18:47:34.889Z,18.55
2018-04-11T18:50:05.881Z,18.45
2018-04-11T18:52:36.885Z,18.40
2018-04-11T18:55:07.904Z,18.34
2018-04-11T18:57:38.885Z,18.28
2018-04-11T19:00:09.874Z,18.21
2018-04-11T19:02:40.883Z,18.11
2018-04-11T19:05:11.884Z,18.03
2018-04-11T19:07:42.855Z,17.95
2018-04-11T19:10:13.859Z,17.90
2018-04-11T19:12:44.916Z,17.82
2018-04-11T19:15:15.945Z,17.73
2018-04-11T19:17:46.966Z,17.64
2018-04-11T19:20:17.990Z,17.62
2018-04-11T19:22:48.981Z,17.57
2018-04-11T19:25:20.012Z,17.54
2018-04-11T19:27:50.988Z,17.52
2018-04-11T19:30:22.036Z,17.48
2018-04-11T19:32:53.006Z,17.41
2018-04-11T19:35:23.992Z,17.34
2018-04-11T19:37:55.025Z,17.26
2018-04-11T19:40:26.046Z,17.23
2018-04-11T19:42:57.047Z,17.23
2018-04-11T19:45:28.074Z,17.12
2018-04-11T19:47:59.104Z,17.07
2018-04-11T19:50:30.118Z,17.05
2018-04-11T19:53:01.125Z,17.05
2018-04-11T19:55:32.105Z,17.01
2018-04-11T19:58:03.104Z,16.93
2018-04-11T20:00:34.122Z,16.95
2018-04-11T20:03:05.131Z,16.89
2018-04-11T20:05:36.154Z,16.88
2018-04-11T20:08:07.177Z,16.89
2018-04-11T20:10:38.171Z,16.83
2018-04-11T20:13:09.196Z,16.80
2018-04-11T20:15:40.214Z,16.76
2018-04-11T20:18:11.293Z,16.71
2018-04-11T20:20:42.316Z,16.69
2018-04-11T20:23:13.300Z,16.71
2018-04-11T20:25:44.268Z,16.70
2018-04-11T20:28:15.285Z,16.61
2018-04-11T20:30:46.323Z,16.58
2018-04-11T20:33:17.400Z,16.56
2018-04-11T20:35:48.412Z,16.50
2018-04-11T20:38:19.399Z,16.43
2018-04-11T20:40:50.411Z,16.38
2018-04-11T20:43:21.446Z,16.39
2018-04-11T20:45:52.399Z,16.38
2018-04-11T20:48:23.403Z,16.36
2018-04-11T20:50:54.343Z,16.34
2018-04-11T20:53:25.385Z,16.33
2018-04-11T20:55:56.325Z,16.37
2018-04-11T20:58:27.366Z,16.41
2018-04-11T21:00:58.326Z,16.42
2018-04-11T21:03:29.360Z,16.44
2018-04-11T21:06:00.387Z,16.52
2018-04-11T21:08:31.345Z,16.57
2018-04-11T21:11:02.318Z,16.58
2018-04-11T21:13:33.272Z,16.58
2018-04-11T21:16:04.235Z,16.55
2018-04-11T21:18:42.235Z,16.51
2018-04-11T21:21:13.205Z,16.47
2018-04-11T21:23:44.155Z,16.47
2018-04-11T21:26:15.096Z,16.40
2018-04-11T21:28:46.064Z,16.36
2018-04-11T21:31:17.005Z,16.41
2018-04-11T21:33:47.998Z,16.39
2018-04-11T21:36:18.948Z,16.39
2018-04-11T21:38:49.911Z,16.40
2018-04-11T21:41:20.865Z,16.41
2018-04-11T21:43:51.798Z,16.42
2018-04-11T21:46:22.791Z,16.40
2018-04-11T21:48:53.738Z,16.38
2018-04-11T21:51:24.715Z,16.38
2018-04-11T21:53:55.796Z,16.35
2018-04-11T21:56:26.775Z,16.35
2018-04-11T21:58:57.734Z,16.33
2018-04-11T22:01:28.674Z,16.32
2018-04-11T22:03:59.638Z,16.27
2018-04-11T22:06:30.585Z,16.23
2018-04-11T22:09:01.554Z,16.17
2018-04-11T22:11:32.543Z,16.08
2018-04-11T22:14:03.526Z,16.02
2018-04-11T22:16:34.497Z,15.91
2018-04-11T22:19:05.453Z,15.88
2018-04-11T22:21:36.409Z,15.82
2018-04-11T22:24:07.392Z,15.81
2018-04-11T22:26:38.379Z,15.80
2018-04-11T22:29:09.353Z,15.77
2018-04-11T22:31:40.307Z,15.72
2018-04-11T22:34:11.279Z,15.75
2018-04-11T22:36:42.243Z,15.73
2018-04-11T22:39:13.183Z,15.74
2018-04-11T22:41:44.156Z,15.73
2018-04-11T22:44:15.104Z,15.72
2018-04-11T22:46:46.077Z,15.69
2018-04-11T22:49:17.046Z,15.67
2018-04-11T22:51:47.988Z,15.65
2018-04-11T22:56:56.648Z,15.61
2018-04-11T22:59:27.639Z,15.58
2018-04-11T23:01:58.594Z,15.52
2018-04-11T23:04:29.587Z,15.52
2018-04-11T23:07:00.575Z,15.53
2018-04-11T23:09:31.576Z,15.53
2018-04-11T23:12:02.595Z,15.53
2018-04-11T23:14:33.546Z,15.47
2018-04-11T23:17:04.536Z,15.50
2018-04-11T23:19:35.502Z,15.50
2018-04-11T23:22:06.470Z,15.50
2018-04-11T23:24:37.417Z,15.47
2018-04-11T23:27:08.384Z,15.47
2018-04-11T23:29:39.410Z,15.45
2018-04-11T23:32:10.364Z,15.44
2018-04-11T23:34:41.341Z,15.39
2018-04-11T23:37:12.307Z,15.36
2018-04-11T23:39:43.269Z,15.33
2018-04-11T23:42:14.251Z,15.31
2018-04-11T23:44:45.217Z,15.33
2018-04-11T23:47:16.185Z,15.29
2018-04-11T23:49:47.170Z,15.32
2018-04-11T23:52:18.116Z,15.35
2018-04-11T23:54:49.074Z,15.31
2018-04-11T23:57:20.036Z,15.31
2018-04-11T23:59:51.028Z,15.33
